Weather observations for the past three days for
La Crosse - La Crosse Regional Airport
Metric (Imperial)
Date Time (cdt) Wind (kph) Vis. (km) Weather Sky Cond. Temperature (ºC) Relative Humidity Wind Chill (°C) Heat Index (°C) Pressure Precipitation (cm)
Air Dwpt 6 hour altimeter (cm) sea level (mb) 1 hr 3 hr 6 hr
Max. Min.
10 16:53 NW 28 16.09 Fair CLR 17.8 -1.1 28% 76.38 1018.5
10 15:53 N 24 16.09 A Few Clouds FEW090 17.8 -1.7 27% 76.4 1018.6
10 14:53 N 30 G 43 16.09 Fair CLR 17.2 -0.6 30% 76.4 1018.7
10 13:53 N 28 16.09 Partly Cloudy SCT090 17.2 -1.1 29% 76.43 1019.1
10 12:53 N 28 G 41 16.09 A Few Clouds FEW100 16.7 -2.2 16.7 5.6 28% 76.45 1019.3
10 11:53 N 22 16.09 Mostly Cloudy BKN090 BKN110 15 -1.7 32% 76.48 1019.7
10 10:53 N 17 16.09 Mostly Cloudy BKN090 BKN110 12.8 -1.7 37% 76.45 1019.7
10 09:53 N 13 16.09 Partly Cloudy SCT100 11.7 -1.7 40% 76.45 1019.5
10 08:53 N 9 16.09 A Few Clouds FEW100 11.1 -1.1 43% 76.45 1019.3
10 07:53 SW 7 16.09 Fair CLR 8.3 0 56% 7 76.4 1018.8
10 06:53 Calm 16.09 Fair CLR 5.6 1.1 8.3 3.3 73% 76.38 1018.3
10 05:53 S 7 16.09 Fair CLR 4.4 -0.6 70% 3 76.35 1017.9
10 04:53 Calm 16.09 Fair CLR 5 -0.6 67% 76.28 1017.0
10 03:53 NE 6 16.09 A Few Clouds FEW090 5.6 -1.1 62% 76.23 1016.3
10 02:53 N 7 16.09 Mostly Cloudy BKN090 7.8 -1.1 54% 7 76.17 1015.5
10 01:53 N 9 16.09 Overcast OVC090 8.3 -1.1 52% 7 76.15 1015.2
10 00:53 Calm 16.09 Mostly Cloudy BKN090 7.2 0 16.1 6.1 61% 76.1 1014.6
09 23:53 Calm 16.09 A Few Clouds FEW090 7.8 0 58% 76.05 1013.9
09 22:53 N 9 16.09 Fair CLR 7.8 -3.9 44% 6 76.02 1013.5
09 21:53 N 13 16.09 Fair CLR 10.6 -4.4 35% 75.97 1012.8
09 20:53 N 19 16.09 Fair CLR 12.8 -3.3 33% 75.87 1011.5
09 19:53 N 28 G 37 16.09 Fair CLR 13.9 -5.6 26% 75.77 1010.2
09 18:53 N 28 G 43 16.09 Fair CLR 16.1 -5 18.3 16.1 23% 75.69 1009.2
09 17:53 N 20 G 37 16.09 Fair CLR 17 -3 25% 75.64 0.0
09 16:53 NW 30 G 46 16.09 Fair CLR 17.8 -5 21% 75.59 1007.6
09 15:53 NW 22 G 43 16.09 Fair CLR 18.3 -1.1 27% 75.54 1006.9
09 14:53 NW 30 16.09 A Few Clouds FEW070 18.3 -0.6 28% 75.51 1006.4
09 13:53 NW 33 G 50 16.09 A Few Clouds and Breezy FEW070 18.3 1.1 32% 75.49 1005.8
09 12:53 NW 28 16.09 A Few Clouds FEW070 17.2 3.3 17.2 9.4 40% 75.46 1005.5
09 11:53 NW 28 G 39 16.09 Partly Cloudy FEW049 SCT060 SCT070 16.7 3.9 43% 75.44 1005.3
09 10:53 N 19 G 37 16.09 Mostly Cloudy BKN045 BKN055 15 3.9 48% 75.39 1005.0
09 09:53 NW 26 G 33 16.09 Overcast OVC039 14.4 3.9 50% 75.31 1003.7
09 08:53 Calm 16.09 Overcast OVC070 12.2 1.7 49% 75.29 1003.4
09 07:53 S 9 16.09 Overcast OVC090 11.1 2.8 57% 75.29 1003.3
09 06:53 Calm 16.09 Mostly Cloudy SCT100 BKN120 9.4 1.7 16.1 5.6 59% 75.23 1002.7
09 05:53 S 11 16.09 Fair CLR 7.8 1.7 66% 6 75.13 1001.2
09 04:53 Calm 16.09 Fair CLR 7.8 2.2 68% 75.13 1001.3
09 03:53 Calm 16.09 Fair CLR 11.1 1.1 50% 75.16 1001.4
09 02:53 NW 11 16.09 Fair CLR 11.7 0 45% 75.18 1001.8
09 01:53 NW 20 16.09 Fair CLR 15 -0.6 35% 75.16 1001.5
09 00:53 NW 20 16.09 Fair CLR 16.1 0 22.2 13.3 34% 75.13 1001.0
08 21:53 SW 9 16.09 Mostly Cloudy BKN100 16.7 0 32% 75.11 1000.9
08 20:53 W 13 16.09 Mostly Cloudy BKN110 19.4 0.6 29% 75.08 1000.8
08 19:53 NW 22 G 39 16.09 Mostly Cloudy FEW090 BKN110 20.6 -2.2 22% 75.11 1000.9
08 18:53 W 13 16.09 Fair CLR 22.2 -2.8 23.9 19.4 19% 75.11 1001.2
08 17:53 W 17 16.09 A Few Clouds FEW110 23.3 -3.3 17% 75.16 1001.8
08 16:53 NW 24 16.09 Partly Cloudy SCT110 22.8 -3.3 17% 75.18 1002.3
08 15:53 W 19 G 31 16.09 A Few Clouds FEW110 23.3 -3.9 16% 75.23 1003.0
08 14:53 W 15 G 39 16.09 A Few Clouds FEW110 22.2 -3.9 17% 75.34 1004.3
08 13:53 NW 19 16.09 Mostly Cloudy BKN110 21.7 -5.6 16% 75.41 1005.2
08 12:53 W 17 16.09 A Few Clouds FEW120 21.1 -3.9 21.1 5 18% 75.46 1006.1
08 11:53 SW 20 G 31 16.09 Fair CLR 18.9 -3.9 21% 75.54 1007.3
08 10:53 S 15 16.09 Fair CLR 17.2 -0.6 30% 75.62 1008.2
08 09:53 S 13 16.09 Fair CLR 13.9 -1.1 36% 75.69 1009.0
08 08:53 S 13 16.09 Fair CLR 11.1 -1.1 43% 75.72 1009.5
08 07:53 S 15 16.09 Fair CLR 8.3 1.1 61% 6 75.72 1009.8
08 06:53 S 15 16.09 Fair CLR 5 1.1 5 2.2 76% 2 75.69 1009.6
08 05:53 S 15 16.09 Fair CLR 4.4 1.1 79% 1 75.69 1009.5
08 04:53 S 11 16.09 Fair CLR 4.4 1.1 79% 2 75.72 1009.8
08 03:53 S 9 16.09 Fair CLR 3.3 0.6 83% 1 75.74 1010.2
08 02:53 S 7 16.09 Fair CLR 2.8 -0.6 79% 1 75.74 1010.3
08 01:53 S 7 16.09 Fair CLR 3.3 -0.6 76% 2 75.79 1010.8
08 00:53 S 11 16.09 Fair CLR 3.9 -2.2 13.9 3.3 65% 1 75.82 1011.1
07 23:53 SE 11 16.09 Fair CLR 4.4 -3.3 58% 2 75.82 1011.3
07 22:53 SE 7 16.09 Fair CLR 6.1 -4.4 47% 5 75.82 1011.4
07 21:53 Calm 16.09 Fair CLR 7.8 -5 40% 75.82 1011.3
07 20:53 NE 6 16.09 Fair CLR 9.4 -5.6 35% 75.79 1010.9
07 19:53 N 13 16.09 Fair CLR 11.1 -6.1 30% 75.77 1010.5
07 18:53 N 13 16.09 Fair CLR 13.9 -6.1 15 12.2 25% 75.74 1010.2
07 17:53 N 19 16.09 Fair CLR 14.4 -6.7 23% 75.74 1010.3
Date Time (cdt) Wind (kph) Vis. (km) Weather Sky Cond. Air Dwpt Max. Min. Relative Humidity Wind Chill (°C) Heat Index (°C) altimeter (cm) sea level (mb) 1 hr 3 hr 6 hr
6 hour
Temperature (ºC) Pressure Precipitation (cm)